Milford, Texas
Current Conditions -  °F | °C
As of 3:15 PM on Saturday 22 Nov 2014 (Local Time) from KINJ Reporting Station
Thunderstorm Thunderstorm  
Wind Chill: 16°   Ceiling: 3400
Heat Index: 16°   Visibility: 5mi
Dew Point: 15°   Wind: 10mph
Humidity: 90%   Direction: 140°SE
Pressure: 29.86"   Gusts: NA
Location:  32.12°N, 96.95°W
Report Text: KINJ 222115Z AUTO 14009KT 5SM VCTSRA SCT026 OVC034 16/15 A2986 RMK AO2 LTG DSNT ALQS P0002 T01620145
Loading
Personal Weather Stations






























Interactive Weather Map New forecast layout! Learn more

10-Day Weather Forecast

Advertisements
Track Severe Weather on mobile